LFML/MRS METAR and TAF weather

Enter ICAO airport designator
Station Type Date Time Source
LFML METAR 2022/12/04 04:30 UTC NOAA

LFML 040430Z AUTO 08009KT 9999 BKN044/// BKN082/// BKN240/// ///TCU 10/09 Q1009 BECMG SCT020 BKN040


Station Type Date Time Source
LFML Decoded METAR 2022/12/04 04:30 UTC NOAA

Marseille / Marignane, France (LFML) 43-27N 005-14E 36M
Dec 03, 2022 - 11:30 PM EST / 2022.12.04 0430 UTC
Wind: from the E (080 degrees) at 10 MPH (9 KT):0
Visibility: greater than 7 mile(s):0
Sky conditions: mostly cloudy
Weather: Towering cumulus clouds observed
Temperature: 50 F (10 C)
Dew Point: 48 F (9 C)
Relative Humidity: 93%
Pressure (altimeter): 29.80 in. Hg (1009 hPa)
ob: LFML 040430Z AUTO 08009KT 9999 BKN044/// BKN082/// BKN240/// ///TCU 10/09 Q1009 BECMG SCT020 BKN040
cycle: 4

Station Type Date Time Source
LFML TAF 2022/12/04 03:54 UTC NOAA

TAF TAF LFML 040200Z 0403/0509 09010KT 9999 SCT020 BKN040 TX13/0413Z TN07/0503Z
TEMPO 0403/0407 VRB04KT
TEMPO 0409/0419 16015KT 4000 SHRA SCT030TCU PROB40
TEMPO 0411/0418 17020G30KT 2000 TSRA SCT020CB
BECMG 0418/0420 VRB03KT PROB40
TEMPO 0423/0503 2000 BR

Example: see airport list